Αρχική σελίδα
METAR-TAF:

METAR-TAF

Αεροδρόμια :

Funafuti, Τουβαλού

γεωγραφικό πλάτος: 08-31S, γεωγραφικό μήκος: 179-13E, υψόμετρο: 1 μ

Παρών καιρός

Η αναφορά έγινε 56 λεπτά πριν, στις 21:00 UTC
Άνεμος 1 kt από μεταβλητές κατευθύνσεις
Θερμοκρασία 30°C
Υγρασία 70%
Πίεση 1011 hPa
Ορατότητα 10 χλμ και άνω
Διάσπαρτα νέφη σε ύψος 1900 πόδια

METAR: NGFU 242100Z VRB01KT 9999 SCT019 30/24 Q1011

Χρόνος: 09:56 (21:56 UTC)

Πρόγνωση Καιρού

Η αναφορά έγινε 4 ώρες και 45 λεπτά πριν, στις 17:11 UTC
Η πρόγνωση ισχύει από τις 24 στις 18 UTC έως τις 25 στις 18 UTC
Άνεμος 5 kt από Α
Ορατότητα 10 χλμ και άνω
Διάσπαρτα νέφη σε ύψος 2000 πόδια
Διάσπαρτα νέφη σε ύψος 5000 πόδια
Ασθενείς όμβροι

TAF: NGFU 241711Z 2418/2518 09005KT 9999 -SHRA SCT020 SCT050

Μετεωρολογικές αναφορές και προγνώσεις για περισσότερα από 4000 αεροδρόμια (δελτία METAR και TAF).

Οι διαθέσιμοι σταθμοί απεικονίζονται στο χάρτη με κίτρινες και κόκκινες κουκκίδες.

Μετακινήστε το ποντίκι πάνω από τις κουκκίδες για να δείτε το όνομα του σταθμού.

Στη συνέχεια, κάντε κλικ για να δείτε τις μετεωρολογικές αναφορές και τις προγνώσεις καιρού.

Για να αλλάξετε το χάρτη: κάντε κλικ στα πράσινα κουμπιά με τον μαύρο σταυρό για να ζουμάρετε, στο πράσινο κουμπί με την παύλα για να αφαιρέσετε το ζουμ ή στα πράσινα βέλη για να αντιπαραβάλλετε χάρτες.


METAR-TAF: